createdAt,value
2018-09-12T00:00:29.658Z,8.27
2018-09-12T00:02:57.382Z,5.57
2018-09-12T00:05:24.923Z,11.67
2018-09-12T00:07:52.546Z,11.50
2018-09-12T00:10:20.149Z,4.33
2018-09-12T00:12:47.750Z,6.83
2018-09-12T00:15:15.337Z,5.57
2018-09-12T00:17:42.932Z,7.43
2018-09-12T00:20:10.480Z,6.63
2018-09-12T00:22:38.065Z,8.60
2018-09-12T00:25:05.758Z,12.03
2018-09-12T00:27:33.362Z,7.23
2018-09-12T00:30:00.977Z,6.37
2018-09-12T00:32:28.554Z,6.40
2018-09-12T00:34:56.120Z,7.97
2018-09-12T00:37:23.724Z,5.50
2018-09-12T00:39:51.249Z,7.53
2018-09-12T00:42:18.849Z,6.27
2018-09-12T00:44:46.405Z,6.00
2018-09-12T00:47:13.960Z,5.40
2018-09-12T00:49:41.550Z,5.13
2018-09-12T00:52:09.141Z,7.93
2018-09-12T00:54:36.710Z,8.57
2018-09-12T00:57:04.341Z,6.13
2018-09-12T00:59:31.894Z,4.83
2018-09-12T01:01:59.533Z,6.73
2018-09-12T01:04:27.090Z,6.17
2018-09-12T01:06:54.981Z,9.07
2018-09-12T01:09:22.562Z,8.07
2018-09-12T01:11:50.154Z,7.13
2018-09-12T01:14:19.549Z,5.93
2018-09-12T01:16:47.229Z,8.67
2018-09-12T01:19:14.817Z,4.47
2018-09-12T01:21:42.407Z,5.60
2018-09-12T01:24:09.966Z,7.50
2018-09-12T01:26:37.505Z,5.83
2018-09-12T01:29:05.097Z,5.20
2018-09-12T01:31:32.679Z,8.87
2018-09-12T01:34:00.309Z,5.03
2018-09-12T01:36:27.906Z,7.70
2018-09-12T01:38:55.519Z,6.03
2018-09-12T01:41:23.135Z,7.27
2018-09-12T01:43:50.657Z,29.93
2018-09-12T01:46:18.393Z,7.67
2018-09-12T01:48:45.926Z,5.60
2018-09-12T01:51:13.489Z,7.53
2018-09-12T01:53:41.065Z,6.53
2018-09-12T01:56:08.701Z,8.63
2018-09-12T01:58:36.374Z,6.80
2018-09-12T02:01:03.976Z,5.97
2018-09-12T02:03:31.532Z,8.37
2018-09-12T02:05:59.133Z,7.90
2018-09-12T02:08:26.713Z,7.73
2018-09-12T02:10:54.272Z,6.70
2018-09-12T02:13:21.849Z,5.53
2018-09-12T02:15:49.432Z,6.83
2018-09-12T02:18:17.039Z,6.20
2018-09-12T02:20:44.606Z,9.63
2018-09-12T02:23:12.210Z,7.40
2018-09-12T02:25:39.795Z,6.67
2018-09-12T02:28:07.358Z,7.17
2018-09-12T02:30:34.948Z,6.87
2018-09-12T02:33:02.780Z,7.60
2018-09-12T02:35:30.393Z,7.20
2018-09-12T02:37:57.926Z,7.10
2018-09-12T02:40:25.542Z,6.53
2018-09-12T02:42:53.129Z,7.00
2018-09-12T02:45:20.721Z,5.23
2018-09-12T02:47:48.297Z,7.53
2018-09-12T02:50:15.937Z,6.77
2018-09-12T02:52:43.523Z,6.87
2018-09-12T02:55:12.367Z,5.53
2018-09-12T02:57:39.969Z,11.37
2018-09-12T03:00:07.965Z,7.50
2018-09-12T03:02:35.698Z,8.13
2018-09-12T03:05:03.334Z,9.43
2018-09-12T03:07:31.086Z,7.73
2018-09-12T03:09:58.674Z,10.13
2018-09-12T03:12:26.254Z,8.00
2018-09-12T03:14:53.829Z,5.50
2018-09-12T03:17:21.732Z,6.83
2018-09-12T03:19:49.385Z,8.30
2018-09-12T03:22:16.976Z,8.37
2018-09-12T03:24:44.618Z,7.37
2018-09-12T03:27:12.196Z,7.03
2018-09-12T03:29:39.790Z,11.67
2018-09-12T03:32:07.559Z,9.90
2018-09-12T03:34:35.154Z,11.20
2018-09-12T03:37:02.746Z,8.30
2018-09-12T03:39:30.324Z,10.87
2018-09-12T03:41:57.895Z,11.47
2018-09-12T03:44:25.514Z,10.57
2018-09-12T03:46:53.093Z,8.23
2018-09-12T03:49:20.665Z,9.33
2018-09-12T03:51:48.246Z,10.30
2018-09-12T03:54:15.848Z,7.50
2018-09-12T03:56:43.422Z,9.87
2018-09-12T03:59:11.009Z,13.00
2018-09-12T04:01:38.596Z,13.27
2018-09-12T04:04:06.210Z,11.70
2018-09-12T04:06:33.778Z,8.60
2018-09-12T04:09:01.378Z,11.73
2018-09-12T04:11:28.993Z,15.07
2018-09-12T04:13:56.570Z,11.90
2018-09-12T04:16:24.194Z,12.17
2018-09-12T04:18:51.810Z,11.87
2018-09-12T04:21:19.448Z,14.57
2018-09-12T04:23:47.200Z,9.73
2018-09-12T04:26:14.774Z,13.77
2018-09-12T04:28:42.468Z,14.80
2018-09-12T04:31:10.080Z,11.77
2018-09-12T04:33:37.672Z,15.80
2018-09-12T04:36:05.401Z,15.50
2018-09-12T04:38:33.013Z,8.93
2018-09-12T04:41:00.602Z,9.33
2018-09-12T04:43:28.210Z,9.13
2018-09-12T04:45:55.816Z,16.23
2018-09-12T04:48:23.436Z,10.73
2018-09-12T04:50:50.976Z,11.40
2018-09-12T04:53:18.616Z,13.27
2018-09-12T04:55:46.211Z,9.77
2018-09-12T04:58:13.793Z,9.53
2018-09-12T05:00:41.414Z,12.83
2018-09-12T05:03:08.969Z,8.60
2018-09-12T05:05:36.564Z,12.53
2018-09-12T05:08:04.353Z,10.13
2018-09-12T05:10:31.942Z,10.27
2018-09-12T05:12:59.580Z,11.10
2018-09-12T05:15:27.128Z,10.27
2018-09-12T05:17:54.765Z,12.20
2018-09-12T05:20:22.345Z,10.33
2018-09-12T05:22:49.998Z,11.57
2018-09-12T05:25:17.583Z,10.63
2018-09-12T05:27:45.184Z,9.73
2018-09-12T05:30:12.765Z,11.90
2018-09-12T05:32:40.362Z,14.73
2018-09-12T05:35:11.185Z,15.60
2018-09-12T05:37:38.771Z,12.97
2018-09-12T05:40:06.649Z,15.17
2018-09-12T05:42:34.209Z,18.00
2018-09-12T05:45:01.811Z,11.43
2018-09-12T05:47:29.381Z,14.37
2018-09-12T05:49:56.977Z,13.30
2018-09-12T05:52:24.656Z,8.97
2018-09-12T05:54:52.314Z,10.07
2018-09-12T05:57:19.918Z,11.83
2018-09-12T05:59:47.526Z,13.40
2018-09-12T06:02:15.169Z,7.93
2018-09-12T06:04:42.750Z,10.67
2018-09-12T06:07:10.432Z,10.80
2018-09-12T06:09:37.896Z,12.97
2018-09-12T06:12:05.597Z,17.30
2018-09-12T06:14:33.161Z,23.90
2018-09-12T06:17:00.725Z,22.17
2018-09-12T06:19:28.321Z,12.63
2018-09-12T06:21:55.901Z,14.53
2018-09-12T06:24:23.479Z,25.63
2018-09-12T06:26:51.056Z,18.10
2018-09-12T06:29:18.628Z,23.93
2018-09-12T06:31:46.270Z,15.87
2018-09-12T06:34:13.848Z,22.57
2018-09-12T06:36:41.465Z,13.57
2018-09-12T06:39:10.851Z,10.03
2018-09-12T06:41:38.422Z,10.77
2018-09-12T06:44:06.287Z,12.03
2018-09-12T06:46:34.057Z,11.97
2018-09-12T06:49:01.618Z,10.40
2018-09-12T06:51:29.209Z,15.47
2018-09-12T06:53:56.846Z,13.70
2018-09-12T06:56:24.505Z,14.07
2018-09-12T06:58:52.130Z,14.47
2018-09-12T07:01:19.717Z,12.83
2018-09-12T07:03:47.271Z,12.47
2018-09-12T07:06:14.848Z,14.97
2018-09-12T07:08:42.413Z,13.80
2018-09-12T07:11:09.980Z,14.00
2018-09-12T07:13:37.565Z,12.30
2018-09-12T07:16:05.258Z,11.57
2018-09-12T07:18:32.865Z,10.17
2018-09-12T07:21:00.459Z,12.03
2018-09-12T07:23:28.042Z,13.03
2018-09-12T07:25:55.686Z,20.40
2018-09-12T07:28:23.300Z,14.13
2018-09-12T07:30:51.594Z,15.10
2018-09-12T07:33:19.129Z,15.23
2018-09-12T07:35:46.705Z,17.83
2018-09-12T07:38:14.351Z,15.80
2018-09-12T07:40:41.983Z,15.53
2018-09-12T07:43:09.590Z,19.43
2018-09-12T07:45:37.193Z,18.13
2018-09-12T07:48:05.002Z,22.87
2018-09-12T07:50:32.640Z,17.83
2018-09-12T07:53:00.165Z,20.77
2018-09-12T07:55:27.760Z,15.60
2018-09-12T07:57:55.435Z,18.83
2018-09-12T08:00:23.045Z,16.37
2018-09-12T08:02:50.609Z,14.67
2018-09-12T08:05:18.244Z,15.68
2018-09-12T08:07:45.849Z,18.42
2018-09-12T08:10:13.457Z,16.35
2018-09-12T08:12:41.005Z,16.42
2018-09-12T08:15:08.568Z,16.42
2018-09-12T08:17:36.161Z,15.28
2018-09-12T08:20:03.895Z,14.87
2018-09-12T08:22:31.534Z,13.38
2018-09-12T08:24:59.097Z,12.75
2018-09-12T08:27:26.698Z,14.30
2018-09-12T08:29:54.423Z,14.20
2018-09-12T08:32:22.058Z,16.15
2018-09-12T08:34:49.709Z,16.62
2018-09-12T08:37:17.416Z,13.95
2018-09-12T08:39:44.996Z,14.65
2018-09-12T08:42:12.660Z,13.28
2018-09-12T08:44:40.226Z,12.75
2018-09-12T08:47:07.884Z,14.65
2018-09-12T08:49:35.429Z,14.18
2018-09-12T08:52:03.037Z,14.33
2018-09-12T08:54:30.668Z,15.80
2018-09-12T08:56:58.241Z,14.35
2018-09-12T08:59:25.800Z,20.17
2018-09-12T09:01:53.462Z,17.50
2018-09-12T09:04:21.098Z,14.93
2018-09-12T09:06:48.669Z,15.05
2018-09-12T09:09:16.302Z,14.90
2018-09-12T09:11:43.848Z,15.88
2018-09-12T09:14:11.507Z,14.93
2018-09-12T09:16:39.087Z,13.93
2018-09-12T09:19:06.714Z,15.68
2018-09-12T09:21:34.322Z,17.02
2018-09-12T09:24:02.433Z,17.15
2018-09-12T09:26:30.077Z,14.53
2018-09-12T09:28:57.757Z,13.65
2018-09-12T09:31:25.342Z,13.50
2018-09-12T09:33:52.903Z,12.20
2018-09-12T09:36:20.471Z,13.53
2018-09-12T09:38:48.090Z,15.60
2018-09-12T09:41:15.716Z,15.65
2018-09-12T09:43:43.304Z,14.73
2018-09-12T09:46:10.902Z,11.68
2018-09-12T09:48:38.465Z,13.08
2018-09-12T09:51:06.108Z,13.88
2018-09-12T09:53:33.889Z,13.05
2018-09-12T09:56:02.040Z,14.80
2018-09-12T09:58:29.693Z,16.93
2018-09-12T10:01:03.070Z,12.70
2018-09-12T10:03:36.286Z,12.13
2018-09-12T10:06:09.575Z,19.20
2018-09-12T10:08:58.032Z,16.15
2018-09-12T10:11:25.641Z,16.65
2018-09-12T10:13:53.239Z,13.20
2018-09-12T10:16:21.527Z,16.90
2018-09-12T10:18:49.471Z,14.70
2018-09-12T10:21:17.679Z,15.65
2018-09-12T10:23:45.287Z,14.05
2018-09-12T10:26:12.929Z,12.63
2018-09-12T10:28:40.521Z,13.55
2018-09-12T10:31:08.102Z,13.43
2018-09-12T10:33:35.914Z,15.85
2018-09-12T10:36:03.542Z,13.43
2018-09-12T10:38:31.089Z,14.28
2018-09-12T10:40:58.705Z,14.03
2018-09-12T10:43:26.223Z,15.60
2018-09-12T10:45:53.801Z,13.28
2018-09-12T10:48:21.374Z,13.98
2018-09-12T10:50:49.041Z,15.72
2018-09-12T10:53:16.609Z,16.07
2018-09-12T10:55:44.208Z,12.47
2018-09-12T10:58:11.786Z,16.10
2018-09-12T11:00:39.373Z,13.08
2018-09-12T11:03:07.138Z,13.45
2018-09-12T11:05:34.700Z,17.00
2018-09-12T11:08:02.312Z,14.28
2018-09-12T11:10:30.006Z,14.98
2018-09-12T11:12:57.568Z,15.65
2018-09-12T11:15:25.183Z,14.18
2018-09-12T11:17:52.731Z,15.68
2018-09-12T11:20:20.258Z,14.63
2018-09-12T11:22:47.938Z,14.45
2018-09-12T11:25:15.506Z,16.10
2018-09-12T11:27:43.069Z,16.00
2018-09-12T11:30:10.629Z,15.60
2018-09-12T11:32:38.305Z,25.52
2018-09-12T11:35:06.057Z,16.32
2018-09-12T11:37:33.634Z,15.05
2018-09-12T11:40:01.237Z,15.38
2018-09-12T11:42:28.905Z,17.67
2018-09-12T11:44:56.517Z,16.87
2018-09-12T11:47:24.103Z,17.87
2018-09-12T11:49:51.706Z,17.90
2018-09-12T11:52:19.308Z,20.95
2018-09-12T11:54:46.893Z,16.12
2018-09-12T11:57:14.514Z,15.77
2018-09-12T11:59:42.103Z,10.60
2018-09-12T12:02:09.712Z,14.60
2018-09-12T12:04:37.290Z,11.33
2018-09-12T12:07:05.693Z,9.13
2018-09-12T12:09:33.378Z,11.67
2018-09-12T12:12:01.017Z,9.13
2018-09-12T12:14:28.671Z,9.67
2018-09-12T12:16:56.317Z,10.73
2018-09-12T12:19:23.913Z,9.87
2018-09-12T12:21:51.497Z,10.43
2018-09-12T12:24:19.056Z,5.93
2018-09-12T12:26:46.677Z,9.27
2018-09-12T12:29:14.250Z,6.27
2018-09-12T12:31:41.834Z,6.63
2018-09-12T12:34:09.470Z,11.10
2018-09-12T12:36:37.082Z,11.43
2018-09-12T12:39:06.885Z,10.23
2018-09-12T12:41:34.526Z,9.47
2018-09-12T12:44:02.131Z,8.70
2018-09-12T12:46:29.749Z,12.40
2018-09-12T12:48:57.354Z,9.77
2018-09-12T12:51:25.593Z,10.53
2018-09-12T12:53:53.210Z,8.80
2018-09-12T12:56:20.818Z,10.27
2018-09-12T12:58:48.769Z,7.77
2018-09-12T13:01:16.472Z,6.40
2018-09-12T13:03:44.017Z,20.27
2018-09-12T13:06:11.642Z,18.63
2018-09-12T13:08:39.243Z,11.20
2018-09-12T13:11:06.832Z,10.43
2018-09-12T13:13:34.447Z,10.13
2018-09-12T13:16:02.825Z,7.40
2018-09-12T13:18:31.231Z,8.10
2018-09-12T13:20:58.857Z,7.03
2018-09-12T13:23:26.445Z,9.50
2018-09-12T13:25:54.058Z,11.27
2018-09-12T13:28:22.551Z,13.23
2018-09-12T13:30:50.178Z,13.03
2018-09-12T13:33:17.801Z,11.33
2018-09-12T13:35:45.449Z,10.33
2018-09-12T13:38:13.067Z,6.87
2018-09-12T13:40:41.528Z,7.63
2018-09-12T13:43:10.212Z,6.40
2018-09-12T13:45:37.814Z,8.10
2018-09-12T13:48:05.649Z,7.83
2018-09-12T13:50:33.455Z,6.93
2018-09-12T13:53:01.201Z,5.37
2018-09-12T13:55:29.018Z,5.17
2018-09-12T13:57:56.798Z,6.07
2018-09-12T14:00:24.755Z,8.40
2018-09-12T14:02:52.573Z,4.97
2018-09-12T14:05:20.458Z,7.23
2018-09-12T14:07:48.304Z,10.10
2018-09-12T14:10:16.190Z,5.97
2018-09-12T14:12:57.728Z,9.33
2018-09-12T14:15:25.565Z,6.87
2018-09-12T14:17:53.558Z,4.33
2018-09-12T14:20:22.102Z,4.83
2018-09-12T14:22:50.162Z,4.13
2018-09-12T14:25:17.986Z,4.23
2018-09-12T14:27:45.849Z,5.33
2018-09-12T14:30:13.715Z,4.73
2018-09-12T14:32:41.583Z,3.97
2018-09-12T14:35:09.571Z,5.33
2018-09-12T14:37:37.916Z,4.57
2018-09-12T14:40:05.958Z,4.17
2018-09-12T14:42:33.779Z,4.90
2018-09-12T14:45:01.705Z,4.83
2018-09-12T14:47:31.632Z,3.67
2018-09-12T14:49:59.454Z,5.17
2018-09-12T14:52:27.533Z,4.50
2018-09-12T14:54:55.334Z,7.30
2018-09-12T14:57:23.225Z,4.90
2018-09-12T15:02:59.777Z,6.93
2018-09-12T15:05:45.219Z,5.73
2018-09-12T15:08:41.896Z,7.23
2018-09-12T15:11:30.143Z,6.90
2018-09-12T15:14:00.573Z,6.80
2018-09-12T15:16:28.446Z,10.07
2018-09-12T15:19:26.484Z,9.10
2018-09-12T15:21:54.591Z,9.30
2018-09-12T15:24:24.328Z,14.03
2018-09-12T15:26:52.183Z,11.23
2018-09-12T15:29:20.058Z,12.63
2018-09-12T15:31:47.896Z,13.90
2018-09-12T15:34:15.911Z,15.30
2018-09-12T15:36:43.743Z,14.13
2018-09-12T15:39:12.143Z,17.23
2018-09-12T15:41:40.255Z,18.73
2018-09-12T15:44:08.034Z,13.23
2018-09-12T15:46:35.900Z,18.70
2018-09-12T15:49:03.857Z,19.50
2018-09-12T15:51:31.689Z,14.13
2018-09-12T15:53:59.610Z,19.37
2018-09-12T15:56:27.534Z,16.00
2018-09-12T15:58:55.424Z,16.87
2018-09-12T16:01:23.194Z,16.10
2018-09-12T16:03:51.061Z,15.90
2018-09-12T16:06:18.864Z,18.60
2018-09-12T16:08:46.785Z,17.50
2018-09-12T16:11:14.673Z,17.00
2018-09-12T16:13:42.588Z,18.13
2018-09-12T16:16:10.430Z,18.50
2018-09-12T16:18:38.467Z,17.17
2018-09-12T16:21:06.091Z,15.93
2018-09-12T16:23:34.020Z,18.20
2018-09-12T16:26:02.024Z,17.30
2018-09-12T16:28:29.873Z,18.07
2018-09-12T16:30:57.770Z,16.90
2018-09-12T16:33:25.377Z,14.70
2018-09-12T16:35:52.986Z,18.07
2018-09-12T16:38:20.739Z,13.77
2018-09-12T16:40:48.475Z,14.47
2018-09-12T16:43:16.157Z,13.87
2018-09-12T16:45:44.764Z,13.60
2018-09-12T16:48:12.405Z,13.23
2018-09-12T16:50:40.291Z,15.80
2018-09-12T16:53:08.018Z,12.93
2018-09-12T16:55:35.880Z,12.97
2018-09-12T16:58:03.494Z,16.10
2018-09-12T17:00:31.111Z,14.33
2018-09-12T17:02:58.864Z,11.90
2018-09-12T17:05:26.433Z,13.57
2018-09-12T17:07:54.005Z,11.33
2018-09-12T17:10:21.690Z,12.30
2018-09-12T17:12:50.085Z,11.67
2018-09-12T17:15:17.688Z,11.40
2018-09-12T17:17:46.080Z,11.23
2018-09-12T17:20:13.836Z,10.63
2018-09-12T17:22:57.477Z,10.53
2018-09-12T17:25:32.340Z,11.47
2018-09-12T17:28:00.056Z,10.83
2018-09-12T17:30:27.721Z,12.67
2018-09-12T17:32:55.510Z,14.07
2018-09-12T17:35:23.338Z,12.20
2018-09-12T17:37:51.077Z,14.90
2018-09-12T17:40:18.686Z,17.90
2018-09-12T17:42:46.325Z,13.23
2018-09-12T17:45:14.030Z,13.07
2018-09-12T17:47:41.645Z,12.70
2018-09-12T17:50:09.350Z,14.17
2018-09-12T17:52:36.944Z,18.13
2018-09-12T17:55:05.189Z,12.63
2018-09-12T17:57:32.918Z,12.83
2018-09-12T18:00:00.805Z,12.00
2018-09-12T18:02:28.720Z,11.30
2018-09-12T18:04:56.615Z,10.40
2018-09-12T18:07:24.273Z,11.50
2018-09-12T18:09:51.975Z,12.77
2018-09-12T18:12:19.888Z,11.97
2018-09-12T18:14:47.776Z,9.07
2018-09-12T18:17:16.398Z,9.07
2018-09-12T18:19:44.238Z,9.47
2018-09-12T18:22:11.922Z,9.27
2018-09-12T18:24:39.537Z,9.47
2018-09-12T18:27:07.405Z,11.23
2018-09-12T18:29:35.187Z,9.60
2018-09-12T18:32:04.076Z,11.17
2018-09-12T18:34:32.557Z,8.43
2018-09-12T18:37:00.553Z,8.70
2018-09-12T18:39:28.377Z,9.27
2018-09-12T18:41:55.960Z,11.60
2018-09-12T18:44:24.335Z,10.40
2018-09-12T18:46:52.158Z,10.33
2018-09-12T18:49:21.029Z,10.00
2018-09-12T18:51:51.866Z,10.77
2018-09-12T18:54:19.474Z,14.37
2018-09-12T18:56:47.268Z,11.10
2018-09-12T18:59:14.904Z,10.53
2018-09-12T19:01:47.032Z,9.13
2018-09-12T19:04:16.978Z,9.67
2018-09-12T19:06:44.792Z,10.23
2018-09-12T19:12:11.063Z,9.83
2018-09-12T19:14:38.733Z,10.47
2018-09-12T19:17:06.493Z,9.33
2018-09-12T19:19:34.293Z,8.93
2018-09-12T19:22:02.110Z,9.07
2018-09-12T19:24:29.778Z,9.73
2018-09-12T19:26:57.558Z,10.90
2018-09-12T19:29:25.685Z,8.87
2018-09-12T19:31:54.337Z,8.57
2018-09-12T19:34:22.446Z,8.93
2018-09-12T19:36:50.032Z,8.90
2018-09-12T19:39:17.789Z,11.87
2018-09-12T19:41:49.204Z,8.87
2018-09-12T19:44:16.742Z,10.53
2018-09-12T19:46:45.158Z,10.53
2018-09-12T19:49:12.858Z,13.70
2018-09-12T19:51:41.014Z,10.33
2018-09-12T19:54:10.471Z,8.90
2018-09-12T19:56:41.878Z,11.37
2018-09-12T19:59:09.677Z,9.47
2018-09-12T20:01:49.155Z,9.33
2018-09-12T20:04:30.021Z,9.60
2018-09-12T20:07:01.599Z,11.00
2018-09-12T20:09:29.310Z,12.67
2018-09-12T20:11:57.901Z,11.17
2018-09-12T20:14:26.290Z,9.37
2018-09-12T20:16:55.082Z,10.63
2018-09-12T20:19:24.455Z,11.17
2018-09-12T20:21:52.403Z,11.53
2018-09-12T20:24:20.082Z,9.40
2018-09-12T20:26:48.444Z,10.07
2018-09-12T20:29:16.382Z,9.70
2018-09-12T20:31:44.170Z,10.30
2018-09-12T20:34:11.928Z,10.57
2018-09-12T20:36:40.621Z,11.63
2018-09-12T20:39:11.677Z,12.00
2018-09-12T20:41:40.633Z,10.20
2018-09-12T20:44:08.309Z,11.40
2018-09-12T20:46:36.023Z,10.20
2018-09-12T20:49:03.951Z,11.53
2018-09-12T20:51:32.155Z,10.43
2018-09-12T20:54:00.264Z,11.77
2018-09-12T20:56:28.977Z,15.07
2018-09-12T20:58:56.608Z,11.50
2018-09-12T21:01:24.272Z,11.27
2018-09-12T21:03:53.894Z,11.43
2018-09-12T21:06:21.497Z,12.07
2018-09-12T21:08:49.257Z,14.47
2018-09-12T21:11:16.827Z,13.50
2018-09-12T21:13:44.455Z,11.43
2018-09-12T21:16:12.061Z,10.93
2018-09-12T21:18:39.671Z,11.83
2018-09-12T21:21:07.286Z,11.70
2018-09-12T21:23:34.964Z,13.87
2018-09-12T21:26:02.581Z,12.93
2018-09-12T21:28:30.209Z,13.47
2018-09-12T21:30:57.875Z,12.70
2018-09-12T21:33:25.661Z,13.87
2018-09-12T21:35:53.317Z,14.07
2018-09-12T21:38:21.070Z,17.23
2018-09-12T21:40:48.859Z,13.27
2018-09-12T21:43:16.505Z,14.40
2018-09-12T21:45:44.113Z,12.67
2018-09-12T21:48:11.725Z,14.83
2018-09-12T21:50:39.411Z,12.17
2018-09-12T21:53:06.983Z,13.67
2018-09-12T21:55:34.638Z,14.47
2018-09-12T21:58:02.237Z,14.60
2018-09-12T22:00:29.870Z,9.77
2018-09-12T22:02:57.514Z,8.30
2018-09-12T22:05:25.108Z,7.47
2018-09-12T22:07:52.831Z,8.10
2018-09-12T22:10:20.405Z,9.67
2018-09-12T22:12:48.070Z,8.73
2018-09-12T22:15:15.743Z,10.07
2018-09-12T22:17:43.365Z,9.27
2018-09-12T22:20:14.233Z,9.50
2018-09-12T22:22:41.852Z,9.50
2018-09-12T22:25:09.729Z,11.37
2018-09-12T22:27:37.372Z,10.83
2018-09-12T22:30:06.492Z,11.93
2018-09-12T22:32:34.137Z,12.07
2018-09-12T22:35:01.728Z,9.17
2018-09-12T22:37:29.328Z,14.17
2018-09-12T22:39:56.972Z,10.50
2018-09-12T22:42:24.568Z,10.67
2018-09-12T22:44:52.138Z,9.50
2018-09-12T22:47:19.786Z,10.63
2018-09-12T22:49:47.434Z,10.80
2018-09-12T22:52:15.024Z,11.50
2018-09-12T22:54:42.589Z,11.33
2018-09-12T22:57:10.153Z,13.23
2018-09-12T22:59:37.720Z,12.23
2018-09-12T23:02:05.325Z,12.23
2018-09-12T23:04:32.902Z,11.23
2018-09-12T23:07:00.465Z,11.77
2018-09-12T23:09:28.128Z,12.23
2018-09-12T23:11:55.898Z,11.63
2018-09-12T23:14:31.121Z,14.77
2018-09-12T23:17:00.257Z,14.03
2018-09-12T23:19:27.994Z,14.63
2018-09-12T23:21:55.633Z,14.20
2018-09-12T23:24:23.301Z,14.87
2018-09-12T23:26:51.289Z,15.73
2018-09-12T23:29:18.850Z,16.30
2018-09-12T23:31:46.497Z,17.83
2018-09-12T23:34:14.253Z,17.63
2018-09-12T23:36:41.930Z,17.53
2018-09-12T23:39:11.512Z,22.87
2018-09-12T23:41:39.293Z,22.13
2018-09-12T23:44:07.055Z,26.50
2018-09-12T23:46:34.705Z,19.00
2018-09-12T23:49:02.429Z,26.50
2018-09-12T23:51:30.025Z,24.00
2018-09-12T23:53:57.662Z,23.67
2018-09-12T23:56:25.222Z,27.43
2018-09-12T23:58:52.804Z,20.83
